sensor_id;sensor_type;location;lat;lon;timestamp;temperature;humidity
67175;DHT22;54110;45.778;4.826;2022-08-19T00:01:19;29.30;48.30
67175;DHT22;54110;45.778;4.826;2022-08-19T00:03:45;29.30;48.30
67175;DHT22;54110;45.778;4.826;2022-08-19T00:06:11;29.30;48.30
67175;DHT22;54110;45.778;4.826;2022-08-19T00:08:38;29.30;48.30
67175;DHT22;54110;45.778;4.826;2022-08-19T00:11:04;29.30;48.30
67175;DHT22;54110;45.778;4.826;2022-08-19T00:13:30;29.30;48.30
67175;DHT22;54110;45.778;4.826;2022-08-19T00:15:56;29.30;48.30
67175;DHT22;54110;45.778;4.826;2022-08-19T00:18:22;29.30;48.30
67175;DHT22;54110;45.778;4.826;2022-08-19T00:20:47;29.30;48.30
67175;DHT22;54110;45.778;4.826;2022-08-19T00:23:13;29.30;48.30
67175;DHT22;54110;45.778;4.826;2022-08-19T00:25:40;29.30;48.30
67175;DHT22;54110;45.778;4.826;2022-08-19T00:28:06;29.30;48.30
67175;DHT22;54110;45.778;4.826;2022-08-19T00:30:32;29.30;48.30
67175;DHT22;54110;45.778;4.826;2022-08-19T00:32:58;29.30;48.30
67175;DHT22;54110;45.778;4.826;2022-08-19T00:35:24;29.30;48.30
67175;DHT22;54110;45.778;4.826;2022-08-19T00:37:50;29.30;48.40
67175;DHT22;54110;45.778;4.826;2022-08-19T00:40:16;29.30;48.40
67175;DHT22;54110;45.778;4.826;2022-08-19T00:42:43;29.30;48.40
67175;DHT22;54110;45.778;4.826;2022-08-19T00:45:12;29.30;48.40
67175;DHT22;54110;45.778;4.826;2022-08-19T00:47:38;29.40;48.50
67175;DHT22;54110;45.778;4.826;2022-08-19T00:50:06;29.30;48.50
67175;DHT22;54110;45.778;4.826;2022-08-19T00:52:37;29.40;48.50
67175;DHT22;54110;45.778;4.826;2022-08-19T00:55:05;29.30;48.50
67175;DHT22;54110;45.778;4.826;2022-08-19T00:57:36;29.30;48.50
67175;DHT22;54110;45.778;4.826;2022-08-19T01:00:08;29.30;48.50
67175;DHT22;54110;45.778;4.826;2022-08-19T01:02:34;29.30;48.50
67175;DHT22;54110;45.778;4.826;2022-08-19T01:05:03;29.30;48.60
67175;DHT22;54110;45.778;4.826;2022-08-19T01:07:29;29.30;48.60
67175;DHT22;54110;45.778;4.826;2022-08-19T01:09:55;29.30;48.60
67175;DHT22;54110;45.778;4.826;2022-08-19T01:12:21;29.30;48.60
67175;DHT22;54110;45.778;4.826;2022-08-19T01:14:47;29.30;48.60
67175;DHT22;54110;45.778;4.826;2022-08-19T01:17:16;29.30;48.70
67175;DHT22;54110;45.778;4.826;2022-08-19T01:19:43;29.40;48.70
67175;DHT22;54110;45.778;4.826;2022-08-19T01:22:14;29.30;48.70
67175;DHT22;54110;45.778;4.826;2022-08-19T01:24:41;29.30;48.70
67175;DHT22;54110;45.778;4.826;2022-08-19T01:27:07;29.30;48.70
67175;DHT22;54110;45.778;4.826;2022-08-19T01:29:34;29.30;48.70
67175;DHT22;54110;45.778;4.826;2022-08-19T01:32:03;29.30;49.30
67175;DHT22;54110;45.778;4.826;2022-08-19T01:34:29;29.30;48.80
67175;DHT22;54110;45.778;4.826;2022-08-19T01:36:54;29.30;48.80
67175;DHT22;54110;45.778;4.826;2022-08-19T01:39:23;29.30;48.90
67175;DHT22;54110;45.778;4.826;2022-08-19T01:41:50;29.30;48.80
67175;DHT22;54110;45.778;4.826;2022-08-19T01:44:16;29.40;48.90
67175;DHT22;54110;45.778;4.826;2022-08-19T01:46:43;29.30;48.90
67175;DHT22;54110;45.778;4.826;2022-08-19T01:49:09;29.30;48.90
67175;DHT22;54110;45.778;4.826;2022-08-19T01:51:35;29.30;49.00
67175;DHT22;54110;45.778;4.826;2022-08-19T01:54:01;29.30;49.00
67175;DHT22;54110;45.778;4.826;2022-08-19T01:56:27;29.30;49.00
67175;DHT22;54110;45.778;4.826;2022-08-19T01:58:57;29.30;49.00
67175;DHT22;54110;45.778;4.826;2022-08-19T02:01:24;29.40;49.00
67175;DHT22;54110;45.778;4.826;2022-08-19T02:03:50;29.30;49.10
67175;DHT22;54110;45.778;4.826;2022-08-19T02:06:15;29.30;49.00
67175;DHT22;54110;45.778;4.826;2022-08-19T02:08:41;29.30;49.00
67175;DHT22;54110;45.778;4.826;2022-08-19T02:11:07;29.30;49.00
67175;DHT22;54110;45.778;4.826;2022-08-19T02:13:33;29.30;49.00
67175;DHT22;54110;45.778;4.826;2022-08-19T02:16:01;29.30;48.90
67175;DHT22;54110;45.778;4.826;2022-08-19T02:18:26;29.30;48.90
67175;DHT22;54110;45.778;4.826;2022-08-19T02:20:52;29.30;49.00
67175;DHT22;54110;45.778;4.826;2022-08-19T02:23:18;29.30;48.90
67175;DHT22;54110;45.778;4.826;2022-08-19T02:25:45;29.30;49.00
67175;DHT22;54110;45.778;4.826;2022-08-19T02:28:11;29.30;48.90
67175;DHT22;54110;45.778;4.826;2022-08-19T02:30:38;29.30;49.00
67175;DHT22;54110;45.778;4.826;2022-08-19T02:33:07;29.30;48.90
67175;DHT22;54110;45.778;4.826;2022-08-19T02:35:32;29.30;48.90
67175;DHT22;54110;45.778;4.826;2022-08-19T02:37:58;29.30;48.90
67175;DHT22;54110;45.778;4.826;2022-08-19T02:40:24;29.30;48.90
67175;DHT22;54110;45.778;4.826;2022-08-19T02:42:50;29.30;48.90
67175;DHT22;54110;45.778;4.826;2022-08-19T02:45:15;29.30;48.90
67175;DHT22;54110;45.778;4.826;2022-08-19T02:47:41;29.30;49.00
67175;DHT22;54110;45.778;4.826;2022-08-19T02:50:09;29.30;48.90
67175;DHT22;54110;45.778;4.826;2022-08-19T02:52:35;29.30;48.90
67175;DHT22;54110;45.778;4.826;2022-08-19T02:55:01;29.30;49.00
67175;DHT22;54110;45.778;4.826;2022-08-19T02:57:27;29.30;48.90
67175;DHT22;54110;45.778;4.826;2022-08-19T02:59:53;29.30;49.00
67175;DHT22;54110;45.778;4.826;2022-08-19T03:02:19;29.30;49.00
67175;DHT22;54110;45.778;4.826;2022-08-19T03:04:45;29.30;49.00
67175;DHT22;54110;45.778;4.826;2022-08-19T03:07:15;29.30;49.00
67175;DHT22;54110;45.778;4.826;2022-08-19T03:09:41;29.30;49.00
67175;DHT22;54110;45.778;4.826;2022-08-19T03:12:07;29.30;49.00
67175;DHT22;54110;45.778;4.826;2022-08-19T03:14:33;29.30;49.00
67175;DHT22;54110;45.778;4.826;2022-08-19T03:16:59;29.30;49.10
67175;DHT22;54110;45.778;4.826;2022-08-19T03:19:25;29.30;49.10
67175;DHT22;54110;45.778;4.826;2022-08-19T03:21:51;29.30;49.00
67175;DHT22;54110;45.778;4.826;2022-08-19T03:24:19;29.30;49.10
67175;DHT22;54110;45.778;4.826;2022-08-19T03:26:47;29.30;49.10
67175;DHT22;54110;45.778;4.826;2022-08-19T03:29:14;29.30;49.10
67175;DHT22;54110;45.778;4.826;2022-08-19T03:31:41;29.30;49.10
67175;DHT22;54110;45.778;4.826;2022-08-19T03:34:07;29.30;49.10
67175;DHT22;54110;45.778;4.826;2022-08-19T03:36:33;29.30;49.10
67175;DHT22;54110;45.778;4.826;2022-08-19T03:39:00;29.30;49.10
67175;DHT22;54110;45.778;4.826;2022-08-19T03:41:29;29.30;49.10
67175;DHT22;54110;45.778;4.826;2022-08-19T03:43:56;29.30;49.10
67175;DHT22;54110;45.778;4.826;2022-08-19T03:46:23;29.30;49.10
67175;DHT22;54110;45.778;4.826;2022-08-19T03:48:51;29.30;49.10
67175;DHT22;54110;45.778;4.826;2022-08-19T03:51:23;29.30;49.10
67175;DHT22;54110;45.778;4.826;2022-08-19T03:53:50;29.30;49.10
67175;DHT22;54110;45.778;4.826;2022-08-19T03:56:16;29.30;49.20
67175;DHT22;54110;45.778;4.826;2022-08-19T03:58:43;29.30;49.10
67175;DHT22;54110;45.778;4.826;2022-08-19T04:01:10;29.30;49.10
67175;DHT22;54110;45.778;4.826;2022-08-19T04:03:36;29.30;49.10
67175;DHT22;54110;45.778;4.826;2022-08-19T04:06:10;29.30;49.10
67175;DHT22;54110;45.778;4.826;2022-08-19T04:08:36;29.30;49.10
67175;DHT22;54110;45.778;4.826;2022-08-19T04:11:06;29.30;49.20
67175;DHT22;54110;45.778;4.826;2022-08-19T04:13:32;29.30;49.10
67175;DHT22;54110;45.778;4.826;2022-08-19T04:15:59;29.30;49.20
67175;DHT22;54110;45.778;4.826;2022-08-19T04:18:25;29.30;49.20
67175;DHT22;54110;45.778;4.826;2022-08-19T04:20:52;29.30;49.20
67175;DHT22;54110;45.778;4.826;2022-08-19T04:23:18;29.30;49.10
67175;DHT22;54110;45.778;4.826;2022-08-19T04:25:44;29.30;49.10
67175;DHT22;54110;45.778;4.826;2022-08-19T04:28:11;29.30;49.20
67175;DHT22;54110;45.778;4.826;2022-08-19T04:30:38;29.30;49.20
67175;DHT22;54110;45.778;4.826;2022-08-19T04:33:06;29.30;49.20
67175;DHT22;54110;45.778;4.826;2022-08-19T04:35:36;29.30;49.20
67175;DHT22;54110;45.778;4.826;2022-08-19T04:38:02;29.30;49.20
67175;DHT22;54110;45.778;4.826;2022-08-19T04:40:28;29.30;49.30
67175;DHT22;54110;45.778;4.826;2022-08-19T04:42:53;29.30;49.20
67175;DHT22;54110;45.778;4.826;2022-08-19T04:45:19;29.30;49.20
67175;DHT22;54110;45.778;4.826;2022-08-19T04:47:45;29.30;49.20
67175;DHT22;54110;45.778;4.826;2022-08-19T04:50:12;29.30;49.30
67175;DHT22;54110;45.778;4.826;2022-08-19T04:52:38;29.30;49.30
67175;DHT22;54110;45.778;4.826;2022-08-19T04:55:04;29.30;49.40
67175;DHT22;54110;45.778;4.826;2022-08-19T04:57:30;29.30;49.30
67175;DHT22;54110;45.778;4.826;2022-08-19T04:59:56;29.30;49.30
67175;DHT22;54110;45.778;4.826;2022-08-19T05:02:22;29.30;49.30
67175;DHT22;54110;45.778;4.826;2022-08-19T05:04:48;29.30;49.40
67175;DHT22;54110;45.778;4.826;2022-08-19T05:07:15;29.30;49.40
67175;DHT22;54110;45.778;4.826;2022-08-19T05:09:41;29.30;49.40
67175;DHT22;54110;45.778;4.826;2022-08-19T05:12:07;29.30;49.40
67175;DHT22;54110;45.778;4.826;2022-08-19T05:14:33;29.30;49.40
67175;DHT22;54110;45.778;4.826;2022-08-19T05:17:00;29.30;49.40
67175;DHT22;54110;45.778;4.826;2022-08-19T05:19:25;29.30;49.40
67175;DHT22;54110;45.778;4.826;2022-08-19T05:21:51;29.30;49.60
67175;DHT22;54110;45.778;4.826;2022-08-19T05:24:19;29.20;49.80
67175;DHT22;54110;45.778;4.826;2022-08-19T05:26:48;29.20;49.80
67175;DHT22;54110;45.778;4.826;2022-08-19T05:29:16;29.20;49.80
67175;DHT22;54110;45.778;4.826;2022-08-19T05:31:42;29.20;49.80
67175;DHT22;54110;45.778;4.826;2022-08-19T05:34:09;29.20;49.80
67175;DHT22;54110;45.778;4.826;2022-08-19T05:36:37;29.20;49.80
67175;DHT22;54110;45.778;4.826;2022-08-19T05:39:04;29.20;49.70
67175;DHT22;54110;45.778;4.826;2022-08-19T05:41:31;29.20;49.70
67175;DHT22;54110;45.778;4.826;2022-08-19T05:43:57;29.20;49.70
67175;DHT22;54110;45.778;4.826;2022-08-19T05:46:23;29.10;49.60
67175;DHT22;54110;45.778;4.826;2022-08-19T05:48:49;29.10;49.70
67175;DHT22;54110;45.778;4.826;2022-08-19T05:51:15;29.10;49.80
67175;DHT22;54110;45.778;4.826;2022-08-19T05:53:42;29.10;50.60
67175;DHT22;54110;45.778;4.826;2022-08-19T05:56:10;29.10;50.00
67175;DHT22;54110;45.778;4.826;2022-08-19T05:58:38;29.20;50.20
67175;DHT22;54110;45.778;4.826;2022-08-19T06:01:09;29.10;50.30
67175;DHT22;54110;45.778;4.826;2022-08-19T06:03:35;29.10;50.30
67175;DHT22;54110;45.778;4.826;2022-08-19T06:06:02;29.10;50.40
67175;DHT22;54110;45.778;4.826;2022-08-19T06:08:28;29.10;50.40
67175;DHT22;54110;45.778;4.826;2022-08-19T06:10:53;29.10;50.50
67175;DHT22;54110;45.778;4.826;2022-08-19T06:13:20;29.10;50.50
67175;DHT22;54110;45.778;4.826;2022-08-19T06:15:47;29.10;50.60
67175;DHT22;54110;45.778;4.826;2022-08-19T06:18:13;29.10;50.50
67175;DHT22;54110;45.778;4.826;2022-08-19T06:20:39;29.10;50.60
67175;DHT22;54110;45.778;4.826;2022-08-19T06:23:05;29.10;50.60
67175;DHT22;54110;45.778;4.826;2022-08-19T06:25:31;29.10;50.70
67175;DHT22;54110;45.778;4.826;2022-08-19T06:27:57;29.10;50.80
67175;DHT22;54110;45.778;4.826;2022-08-19T06:30:22;29.10;50.80
67175;DHT22;54110;45.778;4.826;2022-08-19T06:32:50;29.10;50.80
67175;DHT22;54110;45.778;4.826;2022-08-19T06:35:15;29.10;50.80
67175;DHT22;54110;45.778;4.826;2022-08-19T06:37:41;29.10;50.80
67175;DHT22;54110;45.778;4.826;2022-08-19T06:40:07;29.00;50.80
67175;DHT22;54110;45.778;4.826;2022-08-19T06:42:33;29.10;50.80
67175;DHT22;54110;45.778;4.826;2022-08-19T06:44:59;29.10;50.80
67175;DHT22;54110;45.778;4.826;2022-08-19T06:47:25;29.00;50.70
67175;DHT22;54110;45.778;4.826;2022-08-19T06:49:53;29.00;50.70
67175;DHT22;54110;45.778;4.826;2022-08-19T06:52:19;29.00;50.60
67175;DHT22;54110;45.778;4.826;2022-08-19T06:54:44;29.00;50.70
67175;DHT22;54110;45.778;4.826;2022-08-19T06:57:10;29.00;50.70
67175;DHT22;54110;45.778;4.826;2022-08-19T06:59:36;29.00;50.70
67175;DHT22;54110;45.778;4.826;2022-08-19T07:02:05;29.00;50.70
67175;DHT22;54110;45.778;4.826;2022-08-19T07:04:32;29.00;50.70
67175;DHT22;54110;45.778;4.826;2022-08-19T07:07:02;29.00;50.70
67175;DHT22;54110;45.778;4.826;2022-08-19T07:09:28;29.00;50.70
67175;DHT22;54110;45.778;4.826;2022-08-19T07:11:54;29.00;50.70
67175;DHT22;54110;45.778;4.826;2022-08-19T07:14:25;29.00;50.70
67175;DHT22;54110;45.778;4.826;2022-08-19T07:16:53;29.00;50.70
67175;DHT22;54110;45.778;4.826;2022-08-19T07:19:19;29.00;50.70
67175;DHT22;54110;45.778;4.826;2022-08-19T07:21:46;29.00;50.70
67175;DHT22;54110;45.778;4.826;2022-08-19T07:24:13;29.00;50.80
67175;DHT22;54110;45.778;4.826;2022-08-19T07:26:41;29.00;50.80
67175;DHT22;54110;45.778;4.826;2022-08-19T07:29:08;29.00;50.80
67175;DHT22;54110;45.778;4.826;2022-08-19T07:31:34;29.00;50.80
67175;DHT22;54110;45.778;4.826;2022-08-19T07:33:59;29.00;50.80
67175;DHT22;54110;45.778;4.826;2022-08-19T07:36:28;29.00;50.80
67175;DHT22;54110;45.778;4.826;2022-08-19T07:38:53;29.00;50.80
67175;DHT22;54110;45.778;4.826;2022-08-19T07:41:23;28.90;50.80
67175;DHT22;54110;45.778;4.826;2022-08-19T07:43:50;29.00;50.90
67175;DHT22;54110;45.778;4.826;2022-08-19T07:46:16;29.00;50.90
67175;DHT22;54110;45.778;4.826;2022-08-19T07:48:43;28.90;50.90
67175;DHT22;54110;45.778;4.826;2022-08-19T07:51:10;29.00;51.60
67175;DHT22;54110;45.778;4.826;2022-08-19T07:53:37;28.90;51.00
67175;DHT22;54110;45.778;4.826;2022-08-19T07:56:04;29.00;51.10
67175;DHT22;54110;45.778;4.826;2022-08-19T07:58:34;29.00;51.10
67175;DHT22;54110;45.778;4.826;2022-08-19T08:01:00;28.90;51.00
67175;DHT22;54110;45.778;4.826;2022-08-19T08:03:27;28.90;51.00
67175;DHT22;54110;45.778;4.826;2022-08-19T08:05:53;28.90;51.10
67175;DHT22;54110;45.778;4.826;2022-08-19T08:08:19;28.90;51.10
67175;DHT22;54110;45.778;4.826;2022-08-19T08:10:44;28.90;51.10
67175;DHT22;54110;45.778;4.826;2022-08-19T08:13:10;28.90;51.20
67175;DHT22;54110;45.778;4.826;2022-08-19T08:15:38;28.90;51.20
67175;DHT22;54110;45.778;4.826;2022-08-19T08:18:04;29.00;51.10
67175;DHT22;54110;45.778;4.826;2022-08-19T08:20:30;28.90;50.90
67175;DHT22;54110;45.778;4.826;2022-08-19T08:22:55;29.00;50.80
67175;DHT22;54110;45.778;4.826;2022-08-19T08:25:23;29.00;50.80
67175;DHT22;54110;45.778;4.826;2022-08-19T08:27:49;29.00;50.70
67175;DHT22;54110;45.778;4.826;2022-08-19T08:30:17;29.00;50.60
67175;DHT22;54110;45.778;4.826;2022-08-19T08:32:45;29.00;50.50
67175;DHT22;54110;45.778;4.826;2022-08-19T08:35:13;29.00;50.50
67175;DHT22;54110;45.778;4.826;2022-08-19T08:37:39;29.10;50.50
67175;DHT22;54110;45.778;4.826;2022-08-19T08:40:14;29.00;50.40
67175;DHT22;54110;45.778;4.826;2022-08-19T08:42:49;29.00;50.40
67175;DHT22;54110;45.778;4.826;2022-08-19T08:45:18;29.10;50.40
67175;DHT22;54110;45.778;4.826;2022-08-19T08:47:48;29.00;50.50
67175;DHT22;54110;45.778;4.826;2022-08-19T08:50:18;29.10;50.50
67175;DHT22;54110;45.778;4.826;2022-08-19T08:52:47;29.00;50.40
67175;DHT22;54110;45.778;4.826;2022-08-19T08:55:15;29.00;50.40
67175;DHT22;54110;45.778;4.826;2022-08-19T08:57:51;29.10;50.40
67175;DHT22;54110;45.778;4.826;2022-08-19T09:00:22;29.10;50.70
67175;DHT22;54110;45.778;4.826;2022-08-19T09:02:50;29.00;50.90
67175;DHT22;54110;45.778;4.826;2022-08-19T09:05:17;29.00;51.10
67175;DHT22;54110;45.778;4.826;2022-08-19T09:07:57;29.00;51.20
67175;DHT22;54110;45.778;4.826;2022-08-19T09:10:29;29.00;51.10
67175;DHT22;54110;45.778;4.826;2022-08-19T09:13:03;28.90;51.20
67175;DHT22;54110;45.778;4.826;2022-08-19T09:15:36;28.90;51.20
67175;DHT22;54110;45.778;4.826;2022-08-19T09:18:05;28.90;51.30
67175;DHT22;54110;45.778;4.826;2022-08-19T09:20:31;28.90;51.30
67175;DHT22;54110;45.778;4.826;2022-08-19T09:22:57;28.90;51.30
67175;DHT22;54110;45.778;4.826;2022-08-19T09:25:23;28.90;51.30
67175;DHT22;54110;45.778;4.826;2022-08-19T09:27:50;28.90;51.40
67175;DHT22;54110;45.778;4.826;2022-08-19T09:30:19;28.90;51.40
67175;DHT22;54110;45.778;4.826;2022-08-19T09:32:45;28.90;51.40
67175;DHT22;54110;45.778;4.826;2022-08-19T09:35:14;28.80;51.40
67175;DHT22;54110;45.778;4.826;2022-08-19T09:37:40;28.90;51.40
67175;DHT22;54110;45.778;4.826;2022-08-19T09:40:07;28.90;51.40
67175;DHT22;54110;45.778;4.826;2022-08-19T09:42:33;28.80;51.40
67175;DHT22;54110;45.778;4.826;2022-08-19T09:44:59;28.70;51.90
67175;DHT22;54110;45.778;4.826;2022-08-19T09:47:25;28.60;52.40
67175;DHT22;54110;45.778;4.826;2022-08-19T09:49:50;28.40;52.90
67175;DHT22;54110;45.778;4.826;2022-08-19T09:52:17;28.10;53.10
67175;DHT22;54110;45.778;4.826;2022-08-19T09:54:44;28.10;53.50
67175;DHT22;54110;45.778;4.826;2022-08-19T09:57:09;28.00;53.80
67175;DHT22;54110;45.778;4.826;2022-08-19T09:59:35;27.90;54.00
67175;DHT22;54110;45.778;4.826;2022-08-19T10:02:01;27.90;53.80
67175;DHT22;54110;45.778;4.826;2022-08-19T10:04:27;27.90;53.90
67175;DHT22;54110;45.778;4.826;2022-08-19T10:06:55;27.90;54.00
67175;DHT22;54110;45.778;4.826;2022-08-19T10:09:22;27.80;54.20
67175;DHT22;54110;45.778;4.826;2022-08-19T10:11:48;27.80;54.30
67175;DHT22;54110;45.778;4.826;2022-08-19T10:14:14;27.70;54.50
67175;DHT22;54110;45.778;4.826;2022-08-19T10:16:39;27.60;54.60
67175;DHT22;54110;45.778;4.826;2022-08-19T10:19:05;27.60;54.90
67175;DHT22;54110;45.778;4.826;2022-08-19T10:21:32;27.60;54.80
67175;DHT22;54110;45.778;4.826;2022-08-19T10:24:00;27.60;54.90
67175;DHT22;54110;45.778;4.826;2022-08-19T10:26:28;27.60;55.00
67175;DHT22;54110;45.778;4.826;2022-08-19T10:28:55;27.60;55.00
67175;DHT22;54110;45.778;4.826;2022-08-19T10:31:26;27.50;55.00
67175;DHT22;54110;45.778;4.826;2022-08-19T10:33:52;27.50;55.00
67175;DHT22;54110;45.778;4.826;2022-08-19T10:36:21;27.50;55.00
67175;DHT22;54110;45.778;4.826;2022-08-19T10:38:49;27.40;55.00
67175;DHT22;54110;45.778;4.826;2022-08-19T10:41:17;27.40;55.30
67175;DHT22;54110;45.778;4.826;2022-08-19T10:43:44;27.40;55.30
67175;DHT22;54110;45.778;4.826;2022-08-19T10:46:12;27.40;55.30
67175;DHT22;54110;45.778;4.826;2022-08-19T10:48:38;27.30;55.20
67175;DHT22;54110;45.778;4.826;2022-08-19T10:51:04;27.40;55.00
67175;DHT22;54110;45.778;4.826;2022-08-19T10:53:30;27.30;54.90
67175;DHT22;54110;45.778;4.826;2022-08-19T10:55:56;27.40;55.00
67175;DHT22;54110;45.778;4.826;2022-08-19T10:58:22;27.40;54.90
67175;DHT22;54110;45.778;4.826;2022-08-19T11:00:53;27.50;54.70
67175;DHT22;54110;45.778;4.826;2022-08-19T11:03:19;27.60;54.50
67175;DHT22;54110;45.778;4.826;2022-08-19T11:05:45;27.50;54.40
67175;DHT22;54110;45.778;4.826;2022-08-19T11:08:10;27.50;54.10
67175;DHT22;54110;45.778;4.826;2022-08-19T11:10:36;27.60;53.50
67175;DHT22;54110;45.778;4.826;2022-08-19T11:13:02;27.60;53.50
67175;DHT22;54110;45.778;4.826;2022-08-19T11:15:27;27.60;53.50
67175;DHT22;54110;45.778;4.826;2022-08-19T11:17:55;27.60;53.20
67175;DHT22;54110;45.778;4.826;2022-08-19T11:20:20;27.60;53.20
67175;DHT22;54110;45.778;4.826;2022-08-19T11:22:46;27.60;53.20
67175;DHT22;54110;45.778;4.826;2022-08-19T11:25:13;27.60;52.90
67175;DHT22;54110;45.778;4.826;2022-08-19T11:27:40;27.60;52.90
67175;DHT22;54110;45.778;4.826;2022-08-19T11:30:07;27.50;52.90
67175;DHT22;54110;45.778;4.826;2022-08-19T11:32:33;27.50;53.30
67175;DHT22;54110;45.778;4.826;2022-08-19T11:35:00;27.50;53.00
67175;DHT22;54110;45.778;4.826;2022-08-19T11:37:25;27.60;52.60
67175;DHT22;54110;45.778;4.826;2022-08-19T11:39:51;27.60;52.50
67175;DHT22;54110;45.778;4.826;2022-08-19T11:42:17;27.70;52.50
67175;DHT22;54110;45.778;4.826;2022-08-19T11:44:43;27.70;52.60
67175;DHT22;54110;45.778;4.826;2022-08-19T11:47:09;27.80;52.70
67175;DHT22;54110;45.778;4.826;2022-08-19T11:49:34;27.80;52.70
67175;DHT22;54110;45.778;4.826;2022-08-19T11:52:02;27.80;52.60
67175;DHT22;54110;45.778;4.826;2022-08-19T11:54:28;27.80;52.30
67175;DHT22;54110;45.778;4.826;2022-08-19T11:56:53;27.90;52.30
67175;DHT22;54110;45.778;4.826;2022-08-19T11:59:19;27.90;51.70
67175;DHT22;54110;45.778;4.826;2022-08-19T12:01:45;27.90;51.20
67175;DHT22;54110;45.778;4.826;2022-08-19T12:04:11;28.00;50.90
67175;DHT22;54110;45.778;4.826;2022-08-19T12:06:38;28.00;50.90
67175;DHT22;54110;45.778;4.826;2022-08-19T12:09:07;28.00;50.90
67175;DHT22;54110;45.778;4.826;2022-08-19T12:11:33;28.00;50.90
67175;DHT22;54110;45.778;4.826;2022-08-19T12:13:59;28.00;50.90
67175;DHT22;54110;45.778;4.826;2022-08-19T12:16:27;28.00;51.40
67175;DHT22;54110;45.778;4.826;2022-08-19T12:18:53;27.90;51.20
67175;DHT22;54110;45.778;4.826;2022-08-19T12:21:22;27.90;51.30
67175;DHT22;54110;45.778;4.826;2022-08-19T12:23:51;27.90;50.90
67175;DHT22;54110;45.778;4.826;2022-08-19T12:26:18;27.80;50.80
67175;DHT22;54110;45.778;4.826;2022-08-19T12:28:44;27.80;50.90
67175;DHT22;54110;45.778;4.826;2022-08-19T12:31:10;27.80;51.10
67175;DHT22;54110;45.778;4.826;2022-08-19T12:33:36;27.70;51.50
67175;DHT22;54110;45.778;4.826;2022-08-19T12:36:04;27.60;51.40
67175;DHT22;54110;45.778;4.826;2022-08-19T12:38:30;27.70;51.20
67175;DHT22;54110;45.778;4.826;2022-08-19T12:40:56;27.70;51.20
67175;DHT22;54110;45.778;4.826;2022-08-19T12:43:23;27.70;51.40
67175;DHT22;54110;45.778;4.826;2022-08-19T12:45:49;27.70;51.50
67175;DHT22;54110;45.778;4.826;2022-08-19T12:48:15;27.70;51.50
67175;DHT22;54110;45.778;4.826;2022-08-19T12:50:42;27.80;51.30
67175;DHT22;54110;45.778;4.826;2022-08-19T12:53:08;27.80;51.10
67175;DHT22;54110;45.778;4.826;2022-08-19T12:55:34;27.80;51.50
67175;DHT22;54110;45.778;4.826;2022-08-19T12:58:00;27.80;50.80
67175;DHT22;54110;45.778;4.826;2022-08-19T13:00:27;27.90;50.70
67175;DHT22;54110;45.778;4.826;2022-08-19T13:02:54;27.90;50.30
67175;DHT22;54110;45.778;4.826;2022-08-19T13:05:22;27.90;50.50
67175;DHT22;54110;45.778;4.826;2022-08-19T13:07:49;28.00;50.40
67175;DHT22;54110;45.778;4.826;2022-08-19T13:10:17;27.90;50.40
67175;DHT22;54110;45.778;4.826;2022-08-19T13:12:43;28.00;50.50
67175;DHT22;54110;45.778;4.826;2022-08-19T13:15:10;28.00;50.50
67175;DHT22;54110;45.778;4.826;2022-08-19T13:17:37;28.00;50.40
67175;DHT22;54110;45.778;4.826;2022-08-19T13:20:04;28.00;50.40
67175;DHT22;54110;45.778;4.826;2022-08-19T13:22:30;28.00;50.40
67175;DHT22;54110;45.778;4.826;2022-08-19T13:24:56;28.10;50.40
67175;DHT22;54110;45.778;4.826;2022-08-19T13:27:21;28.00;50.20
67175;DHT22;54110;45.778;4.826;2022-08-19T13:29:47;28.00;50.20
67175;DHT22;54110;45.778;4.826;2022-08-19T13:32:13;28.10;50.20
67175;DHT22;54110;45.778;4.826;2022-08-19T13:34:40;28.10;50.10
67175;DHT22;54110;45.778;4.826;2022-08-19T13:37:06;28.10;50.00
67175;DHT22;54110;45.778;4.826;2022-08-19T13:39:32;28.10;49.80
67175;DHT22;54110;45.778;4.826;2022-08-19T13:41:59;28.20;50.10
67175;DHT22;54110;45.778;4.826;2022-08-19T13:44:25;28.20;50.10
67175;DHT22;54110;45.778;4.826;2022-08-19T13:46:50;28.20;49.90
67175;DHT22;54110;45.778;4.826;2022-08-19T13:49:16;28.20;49.80
67175;DHT22;54110;45.778;4.826;2022-08-19T13:51:43;28.20;49.90
67175;DHT22;54110;45.778;4.826;2022-08-19T13:54:10;28.20;51.20
67175;DHT22;54110;45.778;4.826;2022-08-19T13:56:40;28.10;51.80
67175;DHT22;54110;45.778;4.826;2022-08-19T13:59:06;28.20;52.30
67175;DHT22;54110;45.778;4.826;2022-08-19T14:01:32;28.20;52.50
67175;DHT22;54110;45.778;4.826;2022-08-19T14:03:57;28.20;52.40
67175;DHT22;54110;45.778;4.826;2022-08-19T14:06:23;28.20;52.20
67175;DHT22;54110;45.778;4.826;2022-08-19T14:08:50;28.20;52.20
67175;DHT22;54110;45.778;4.826;2022-08-19T14:11:16;28.20;52.00
67175;DHT22;54110;45.778;4.826;2022-08-19T14:13:42;28.10;52.00
67175;DHT22;54110;45.778;4.826;2022-08-19T14:16:09;28.20;52.30
67175;DHT22;54110;45.778;4.826;2022-08-19T14:18:35;28.20;52.20
67175;DHT22;54110;45.778;4.826;2022-08-19T14:21:01;28.20;52.20
67175;DHT22;54110;45.778;4.826;2022-08-19T14:23:26;28.20;52.50
67175;DHT22;54110;45.778;4.826;2022-08-19T14:26:03;28.20;52.50
67175;DHT22;54110;45.778;4.826;2022-08-19T14:28:28;28.30;52.20
67175;DHT22;54110;45.778;4.826;2022-08-19T14:30:54;28.20;52.20
67175;DHT22;54110;45.778;4.826;2022-08-19T14:33:20;28.20;51.60
67175;DHT22;54110;45.778;4.826;2022-08-19T14:35:46;28.30;51.50
67175;DHT22;54110;45.778;4.826;2022-08-19T14:38:15;28.30;51.50
67175;DHT22;54110;45.778;4.826;2022-08-19T14:40:41;28.30;51.40
67175;DHT22;54110;45.778;4.826;2022-08-19T14:43:08;28.30;51.60
67175;DHT22;54110;45.778;4.826;2022-08-19T14:45:36;28.30;51.80
67175;DHT22;54110;45.778;4.826;2022-08-19T14:48:03;28.30;51.70
67175;DHT22;54110;45.778;4.826;2022-08-19T14:50:28;28.30;52.30
67175;DHT22;54110;45.778;4.826;2022-08-19T14:52:58;28.40;51.70
67175;DHT22;54110;45.778;4.826;2022-08-19T14:55:24;28.40;51.60
67175;DHT22;54110;45.778;4.826;2022-08-19T14:57:50;28.40;51.70
67175;DHT22;54110;45.778;4.826;2022-08-19T15:00:17;28.40;51.70
67175;DHT22;54110;45.778;4.826;2022-08-19T15:02:43;28.40;51.70
67175;DHT22;54110;45.778;4.826;2022-08-19T15:05:09;28.40;51.70
67175;DHT22;54110;45.778;4.826;2022-08-19T15:07:35;28.40;51.70
67175;DHT22;54110;45.778;4.826;2022-08-19T15:10:01;28.40;51.70
67175;DHT22;54110;45.778;4.826;2022-08-19T15:12:26;28.40;51.70
67175;DHT22;54110;45.778;4.826;2022-08-19T15:14:52;28.40;51.70
67175;DHT22;54110;45.778;4.826;2022-08-19T15:17:19;28.40;51.70
67175;DHT22;54110;45.778;4.826;2022-08-19T15:19:45;28.50;51.80
67175;DHT22;54110;45.778;4.826;2022-08-19T15:22:11;28.50;51.80
67175;DHT22;54110;45.778;4.826;2022-08-19T15:24:37;28.50;51.80
67175;DHT22;54110;45.778;4.826;2022-08-19T15:27:03;28.50;51.80